createdAt,value
2023-03-22T00:00:20.328Z,3.95
2023-03-22T00:01:24.928Z,5.80
2023-03-22T00:02:26.708Z,4.97
2023-03-22T00:03:29.456Z,5.10
2023-03-22T00:04:32.211Z,12.85
2023-03-22T00:05:34.960Z,3.85
2023-03-22T00:06:37.630Z,3.45
2023-03-22T00:07:40.986Z,4.47
2023-03-22T00:08:44.050Z,9.43
2023-03-22T00:09:45.691Z,9.88
2023-03-22T00:10:49.137Z,6.13
2023-03-22T00:11:52.311Z,4.47
2023-03-22T00:12:55.098Z,3.45
2023-03-22T00:13:58.793Z,6.18
2023-03-22T00:15:01.901Z,4.95
2023-03-22T00:16:04.010Z,7.35
2023-03-22T00:17:06.724Z,5.70
2023-03-22T00:18:12.461Z,7.95
2023-03-22T00:19:15.822Z,4.70
2023-03-22T00:20:20.874Z,6.10
2023-03-22T00:21:23.677Z,6.53
2023-03-22T00:22:25.643Z,5.78
2023-03-22T00:23:28.154Z,4.28
2023-03-22T00:24:30.832Z,5.80
2023-03-22T00:25:32.526Z,3.75
2023-03-22T00:26:38.379Z,4.82
2023-03-22T00:27:41.794Z,6.45
2023-03-22T00:28:44.506Z,6.55
2023-03-22T00:29:46.201Z,3.50
2023-03-22T00:30:53.914Z,5.57
2023-03-22T00:31:56.026Z,7.75
2023-03-22T00:32:58.724Z,5.30
2023-03-22T00:34:00.471Z,6.03
2023-03-22T00:35:03.647Z,5.75
2023-03-22T00:36:07.745Z,6.15
2023-03-22T00:37:10.441Z,3.88
2023-03-22T00:38:14.534Z,5.47
2023-03-22T00:39:17.217Z,5.93
2023-03-22T00:40:19.122Z,5.43
2023-03-22T00:41:23.248Z,9.30
2023-03-22T00:42:25.016Z,6.80
2023-03-22T00:43:29.020Z,8.73
2023-03-22T00:44:30.763Z,7.07
2023-03-22T00:45:36.247Z,4.30
2023-03-22T00:46:38.111Z,7.78
2023-03-22T00:47:40.894Z,7.10
2023-03-22T00:48:42.634Z,5.50
2023-03-22T00:49:45.378Z,6.82
2023-03-22T00:50:47.057Z,5.18
2023-03-22T00:51:49.749Z,6.53
2023-03-22T00:52:51.451Z,5.82
2023-03-22T00:53:54.794Z,5.68
2023-03-22T00:54:56.988Z,4.70
2023-03-22T00:55:59.876Z,4.75
2023-03-22T00:57:01.606Z,5.22
2023-03-22T00:58:04.413Z,4.82
2023-03-22T00:59:07.488Z,4.60
2023-03-22T01:00:13.661Z,6.28
2023-03-22T01:01:15.505Z,5.32
2023-03-22T01:02:18.235Z,4.47
2023-03-22T01:03:21.880Z,6.80
2023-03-22T01:04:26.255Z,5.55
2023-03-22T01:05:28.378Z,6.03
2023-03-22T01:06:31.066Z,4.90
2023-03-22T01:07:33.161Z,6.40
2023-03-22T01:08:38.829Z,3.58
2023-03-22T01:09:40.807Z,6.78
2023-03-22T01:10:44.623Z,4.22
2023-03-22T01:11:46.337Z,4.78
2023-03-22T01:12:49.088Z,7.20
2023-03-22T01:13:50.846Z,9.38
2023-03-22T01:14:54.864Z,4.90
2023-03-22T01:15:56.619Z,6.75
2023-03-22T01:16:59.452Z,9.15
2023-03-22T01:18:01.780Z,6.30
2023-03-22T01:19:04.556Z,10.38
2023-03-22T01:20:09.274Z,5.95
2023-03-22T01:21:12.075Z,5.22
2023-03-22T01:22:13.827Z,5.50
2023-03-22T01:23:16.479Z,6.18
2023-03-22T01:24:18.163Z,4.75
2023-03-22T01:25:21.029Z,5.85
2023-03-22T01:26:22.741Z,6.10
2023-03-22T01:27:25.395Z,3.47
2023-03-22T01:28:27.494Z,6.68
2023-03-22T01:29:31.218Z,5.15
2023-03-22T01:30:34.551Z,5.50
2023-03-22T01:31:37.286Z,4.75
2023-03-22T01:32:39.022Z,4.90
2023-03-22T01:33:41.674Z,7.65
2023-03-22T01:34:43.320Z,5.72
2023-03-22T01:35:46.251Z,6.60
2023-03-22T01:36:48.193Z,5.50
2023-03-22T01:37:51.099Z,7.22
2023-03-22T01:38:52.851Z,4.40
2023-03-22T01:39:55.839Z,8.20
2023-03-22T01:40:57.699Z,4.53
2023-03-22T01:42:00.356Z,5.05
2023-03-22T01:43:02.160Z,5.38
2023-03-22T01:44:08.843Z,5.53
2023-03-22T01:45:36.844Z,5.72
2023-03-22T01:46:39.895Z,6.10
2023-03-22T01:47:44.114Z,5.88
2023-03-22T01:48:47.224Z,5.15
2023-03-22T01:49:49.003Z,4.82
2023-03-22T01:50:57.452Z,4.32
2023-03-22T01:52:02.201Z,5.90
2023-03-22T01:53:05.159Z,5.15
2023-03-22T01:54:08.172Z,6.15
2023-03-22T01:55:11.025Z,5.03
2023-03-22T01:56:13.054Z,5.75
2023-03-22T01:57:15.795Z,5.22
2023-03-22T01:58:18.284Z,7.03
2023-03-22T01:59:21.355Z,5.85
2023-03-22T02:00:23.143Z,3.67
2023-03-22T02:01:27.296Z,5.07
2023-03-22T02:02:30.957Z,5.72
2023-03-22T02:03:39.478Z,6.07
2023-03-22T02:04:41.353Z,5.15
2023-03-22T02:05:44.750Z,4.78
2023-03-22T02:06:47.153Z,6.53
2023-03-22T02:07:50.262Z,7.05
2023-03-22T02:08:53.044Z,6.20
2023-03-22T02:09:55.729Z,7.20
2023-03-22T02:10:57.448Z,5.05
2023-03-22T02:12:09.843Z,4.15
2023-03-22T02:13:22.807Z,6.10
2023-03-22T02:14:45.940Z,4.55
2023-03-22T02:15:52.009Z,8.75
2023-03-22T02:17:05.138Z,5.47
2023-03-22T02:18:19.742Z,5.35
2023-03-22T02:19:51.989Z,5.88
2023-03-22T02:21:16.321Z,5.75
2023-03-22T02:22:52.960Z,5.30
2023-03-22T02:24:28.993Z,4.15
2023-03-22T02:25:46.206Z,7.80
2023-03-22T02:27:28.302Z,4.75
2023-03-22T02:28:39.456Z,6.63
2023-03-22T02:29:44.943Z,7.28
2023-03-22T02:31:00.076Z,6.68
2023-03-22T02:32:38.405Z,11.02
2023-03-22T02:34:25.857Z,9.18
2023-03-22T02:35:36.473Z,5.40
2023-03-22T02:36:57.171Z,5.10
2023-03-22T02:38:45.797Z,6.00
2023-03-22T02:39:51.524Z,7.78
2023-03-22T02:40:58.024Z,6.88
2023-03-22T02:42:11.297Z,10.32
2023-03-22T02:43:18.215Z,6.22
2023-03-22T02:44:26.347Z,5.55
2023-03-22T02:45:34.814Z,5.72
2023-03-22T02:46:43.558Z,5.10
2023-03-22T02:47:54.286Z,6.53
2023-03-22T02:49:02.004Z,6.95
2023-03-22T02:50:09.016Z,3.95
2023-03-22T02:51:13.678Z,5.95
2023-03-22T02:52:20.243Z,7.97
2023-03-22T02:53:25.304Z,9.07
2023-03-22T02:54:30.169Z,8.35
2023-03-22T02:55:36.094Z,5.28
2023-03-22T02:56:41.648Z,6.18
2023-03-22T02:57:47.373Z,4.95
2023-03-22T02:58:53.262Z,7.60
2023-03-22T02:59:55.895Z,7.50
2023-03-22T03:01:01.973Z,7.93
2023-03-22T03:02:04.828Z,6.50
2023-03-22T03:03:11.532Z,14.13
2023-03-22T03:04:16.955Z,6.88
2023-03-22T03:05:20.756Z,7.78
2023-03-22T03:06:25.764Z,6.57
2023-03-22T03:07:28.917Z,6.15
2023-03-22T03:08:30.937Z,6.85
2023-03-22T03:09:34.545Z,6.45
2023-03-22T03:10:38.852Z,7.72
2023-03-22T03:11:41.716Z,6.88
2023-03-22T03:12:43.979Z,6.00
2023-03-22T03:13:48.713Z,5.20
2023-03-22T03:14:50.725Z,7.45
2023-03-22T03:15:57.223Z,5.80
2023-03-22T03:17:11.137Z,6.22
2023-03-22T03:18:21.484Z,6.65
2023-03-22T03:19:27.974Z,5.10
2023-03-22T03:20:37.160Z,10.48
2023-03-22T03:21:45.238Z,11.10
2023-03-22T03:22:54.815Z,5.07
2023-03-22T03:24:03.526Z,5.95
2023-03-22T03:25:10.935Z,7.63
2023-03-22T03:26:22.386Z,7.57
2023-03-22T03:27:28.276Z,5.15
2023-03-22T03:28:39.266Z,6.25
2023-03-22T03:29:45.807Z,5.38
2023-03-22T03:30:52.454Z,5.90
2023-03-22T03:31:58.036Z,6.32
2023-03-22T03:33:05.276Z,5.03
2023-03-22T03:34:13.587Z,5.93
2023-03-22T03:35:23.269Z,4.45
2023-03-22T03:36:26.483Z,8.55
2023-03-22T03:37:34.409Z,8.90
2023-03-22T03:38:38.574Z,5.43
2023-03-22T03:39:45.814Z,5.55
2023-03-22T03:40:49.580Z,5.53
2023-03-22T03:41:54.587Z,6.13
2023-03-22T03:42:57.104Z,7.55
2023-03-22T03:44:00.090Z,6.95
2023-03-22T03:45:01.958Z,5.35
2023-03-22T03:46:04.706Z,7.88
2023-03-22T03:47:07.816Z,4.78
2023-03-22T03:48:14.902Z,5.25
2023-03-22T03:49:17.616Z,7.47
2023-03-22T03:50:20.367Z,6.43
2023-03-22T03:51:22.063Z,6.03
2023-03-22T03:52:26.078Z,4.90
2023-03-22T03:53:28.146Z,7.25
2023-03-22T03:54:30.900Z,7.20
2023-03-22T03:55:33.766Z,5.63
2023-03-22T03:56:36.445Z,5.75
2023-03-22T03:57:39.482Z,5.53
2023-03-22T03:58:42.189Z,8.88
2023-03-22T03:59:45.309Z,6.78
2023-03-22T04:00:48.608Z,4.95
2023-03-22T04:01:51.588Z,9.07
2023-03-22T04:02:54.343Z,9.35
2023-03-22T04:03:56.059Z,5.43
2023-03-22T04:04:58.783Z,5.32
2023-03-22T04:06:01.119Z,6.03
2023-03-22T04:07:06.213Z,5.70
2023-03-22T04:08:08.398Z,7.13
2023-03-22T04:09:11.894Z,4.95
2023-03-22T04:10:13.629Z,6.55
2023-03-22T04:11:16.263Z,7.03
2023-03-22T04:12:17.964Z,7.32
2023-03-22T04:13:24.562Z,7.32
2023-03-22T04:14:26.662Z,7.05
2023-03-22T04:15:29.372Z,6.57
2023-03-22T04:16:31.515Z,5.30
2023-03-22T04:17:34.334Z,6.10
2023-03-22T04:18:36.047Z,5.20
2023-03-22T04:19:38.710Z,8.00
2023-03-22T04:20:41.890Z,6.90
2023-03-22T04:21:44.743Z,8.65
2023-03-22T04:22:46.913Z,7.80
2023-03-22T04:23:49.625Z,6.15
2023-03-22T04:24:51.372Z,6.47
2023-03-22T04:25:54.589Z,6.30
2023-03-22T04:26:56.796Z,4.60
2023-03-22T04:28:00.629Z,4.72
2023-03-22T04:29:04.306Z,6.97
2023-03-22T04:30:10.954Z,6.70
2023-03-22T04:31:12.852Z,5.65
2023-03-22T04:32:18.757Z,6.53
2023-03-22T04:33:22.792Z,5.15
2023-03-22T04:34:26.333Z,11.55
2023-03-22T04:35:27.995Z,5.35
2023-03-22T04:36:31.213Z,10.95
2023-03-22T04:37:33.947Z,9.70
2023-03-22T04:38:35.947Z,7.40
2023-03-22T04:39:38.839Z,8.57
2023-03-22T04:40:46.959Z,7.20
2023-03-22T04:41:49.666Z,5.38
2023-03-22T04:42:57.398Z,5.03
2023-03-22T04:44:02.887Z,8.10
2023-03-22T04:45:07.607Z,8.40
2023-03-22T04:46:12.965Z,7.32
2023-03-22T04:47:14.825Z,5.10
2023-03-22T04:48:20.489Z,6.32
2023-03-22T04:49:23.438Z,8.40
2023-03-22T04:50:28.173Z,7.68
2023-03-22T04:51:32.137Z,5.75
2023-03-22T04:52:33.875Z,6.38
2023-03-22T04:53:38.969Z,5.45
2023-03-22T04:54:40.814Z,5.45
2023-03-22T04:55:45.369Z,8.63
2023-03-22T04:56:47.168Z,6.03
2023-03-22T04:57:49.883Z,8.52
2023-03-22T04:58:51.562Z,5.07
2023-03-22T04:59:54.298Z,5.82
2023-03-22T05:00:58.425Z,4.47
2023-03-22T05:02:01.295Z,5.55
2023-03-22T05:03:04.128Z,7.25
2023-03-22T05:04:07.242Z,4.97
2023-03-22T05:05:09.247Z,5.85
2023-03-22T05:06:12.343Z,5.75
2023-03-22T05:07:14.356Z,7.28
2023-03-22T05:08:16.992Z,4.68
2023-03-22T05:09:19.137Z,4.28
2023-03-22T05:10:22.610Z,12.65
2023-03-22T05:11:27.670Z,7.82
2023-03-22T05:12:30.366Z,4.63
2023-03-22T05:13:32.113Z,7.55
2023-03-22T05:14:34.843Z,8.30
2023-03-22T05:15:39.072Z,7.05
2023-03-22T05:16:43.248Z,6.45
2023-03-22T05:17:44.912Z,10.75
2023-03-22T05:18:47.706Z,6.00
2023-03-22T05:19:49.457Z,7.07
2023-03-22T05:20:53.807Z,7.28
2023-03-22T05:21:58.518Z,5.95
2023-03-22T05:23:02.830Z,8.82
2023-03-22T05:24:05.031Z,3.85
2023-03-22T05:25:09.086Z,8.43
2023-03-22T05:26:11.296Z,7.78
2023-03-22T05:27:14.231Z,6.18
2023-03-22T05:28:16.779Z,9.30
2023-03-22T05:29:19.428Z,8.95
2023-03-22T05:30:21.467Z,6.45
2023-03-22T05:31:24.614Z,4.35
2023-03-22T05:32:29.332Z,5.72
2023-03-22T05:33:32.061Z,5.72
2023-03-22T05:34:37.062Z,5.63
2023-03-22T05:35:41.521Z,6.72
2023-03-22T05:36:43.344Z,4.38
2023-03-22T05:37:46.002Z,7.13
2023-03-22T05:38:47.753Z,5.72
2023-03-22T05:39:50.543Z,6.53
2023-03-22T05:40:52.624Z,7.20
2023-03-22T05:41:55.369Z,8.15
2023-03-22T05:42:57.074Z,7.78
2023-03-22T05:43:59.713Z,10.85
2023-03-22T05:45:01.426Z,8.27
2023-03-22T05:46:06.843Z,7.85
2023-03-22T05:47:08.520Z,7.57
2023-03-22T05:48:12.719Z,6.88
2023-03-22T05:49:14.454Z,6.32
2023-03-22T05:50:19.170Z,6.28
2023-03-22T05:51:20.843Z,7.78
2023-03-22T05:52:24.169Z,7.05
2023-03-22T05:53:25.854Z,5.88
2023-03-22T05:54:28.516Z,6.35
2023-03-22T05:55:32.004Z,9.55
2023-03-22T05:56:35.229Z,7.72
2023-03-22T05:57:36.993Z,7.65
2023-03-22T05:58:41.090Z,7.30
2023-03-22T05:59:43.815Z,5.43
2023-03-22T06:00:45.740Z,5.18
2023-03-22T06:01:48.430Z,4.70
2023-03-22T06:02:52.272Z,5.80
2023-03-22T06:03:56.345Z,5.68
2023-03-22T06:04:58.076Z,9.07
2023-03-22T06:06:00.895Z,6.25
2023-03-22T06:07:02.691Z,9.68
2023-03-22T06:08:05.772Z,9.88
2023-03-22T06:09:16.763Z,7.45
2023-03-22T06:10:20.538Z,7.07
2023-03-22T06:11:22.784Z,6.13
2023-03-22T06:12:27.206Z,8.50
2023-03-22T06:13:30.532Z,9.88
2023-03-22T06:14:33.204Z,8.20
2023-03-22T06:15:34.866Z,5.50
2023-03-22T06:16:37.688Z,9.60
2023-03-22T06:17:39.499Z,5.13
2023-03-22T06:18:42.132Z,6.38
2023-03-22T06:19:45.508Z,6.70
2023-03-22T06:20:48.259Z,8.15
2023-03-22T06:21:51.836Z,6.57
2023-03-22T06:22:54.477Z,4.90
2023-03-22T06:23:56.218Z,7.63
2023-03-22T06:24:58.872Z,4.72
2023-03-22T06:26:00.561Z,7.65
2023-03-22T06:27:03.388Z,6.78
2023-03-22T06:28:08.223Z,6.50
2023-03-22T06:29:11.420Z,6.53
2023-03-22T06:30:13.629Z,12.77
2023-03-22T06:31:16.414Z,8.98
2023-03-22T06:32:18.167Z,5.57
2023-03-22T06:33:20.869Z,6.07
2023-03-22T06:34:22.556Z,7.53
2023-03-22T06:35:26.622Z,7.28
2023-03-22T06:36:28.419Z,5.43
2023-03-22T06:37:31.080Z,6.97
2023-03-22T06:38:33.250Z,7.30
2023-03-22T06:39:35.985Z,7.22
2023-03-22T06:40:37.926Z,5.65
2023-03-22T06:41:40.957Z,7.25
2023-03-22T06:42:42.637Z,11.07
2023-03-22T06:43:45.262Z,6.00
2023-03-22T06:44:47.042Z,7.63
2023-03-22T06:45:50.064Z,8.48
2023-03-22T06:46:51.935Z,4.95
2023-03-22T06:47:54.763Z,4.82
2023-03-22T06:48:56.478Z,5.63
2023-03-22T06:49:59.146Z,6.88
2023-03-22T06:51:02.381Z,6.38
2023-03-22T06:52:05.435Z,6.22
2023-03-22T06:53:07.606Z,5.55
2023-03-22T06:54:12.572Z,8.48
2023-03-22T06:55:15.451Z,8.10
2023-03-22T06:56:17.139Z,5.25
2023-03-22T06:57:20.043Z,7.95
2023-03-22T06:58:21.841Z,6.47
2023-03-22T06:59:24.558Z,5.45
2023-03-22T07:00:26.323Z,5.05
2023-03-22T07:01:29.132Z,5.20
2023-03-22T07:02:31.031Z,5.10
2023-03-22T07:03:33.706Z,6.85
2023-03-22T07:04:35.467Z,5.18
2023-03-22T07:05:38.277Z,5.90
2023-03-22T07:06:41.310Z,6.22
2023-03-22T07:07:43.994Z,8.95
2023-03-22T07:08:45.707Z,4.78
2023-03-22T07:09:49.138Z,4.45
2023-03-22T07:10:51.453Z,6.95
2023-03-22T07:11:54.244Z,5.75
2023-03-22T07:12:55.997Z,7.55
2023-03-22T07:13:58.683Z,5.07
2023-03-22T07:15:00.414Z,6.38
2023-03-22T07:16:03.502Z,7.38
2023-03-22T07:17:05.336Z,5.53
2023-03-22T07:18:08.546Z,6.97
2023-03-22T07:19:10.445Z,7.50
2023-03-22T07:20:13.131Z,7.68
2023-03-22T07:21:15.198Z,5.45
2023-03-22T07:22:22.179Z,5.72
2023-03-22T07:23:23.836Z,7.85
2023-03-22T07:24:26.543Z,10.88
2023-03-22T07:25:28.227Z,6.38
2023-03-22T07:26:31.536Z,5.05
2023-03-22T07:27:33.219Z,5.15
2023-03-22T07:28:36.131Z,7.70
2023-03-22T07:29:37.834Z,10.77
2023-03-22T07:30:41.613Z,5.68
2023-03-22T07:31:43.528Z,4.72
2023-03-22T07:32:46.224Z,6.20
2023-03-22T07:33:49.203Z,6.18
2023-03-22T07:34:51.063Z,6.28
2023-03-22T07:35:53.794Z,6.50
2023-03-22T07:36:57.030Z,7.07
2023-03-22T07:38:01.256Z,4.05
2023-03-22T07:39:02.983Z,10.32
2023-03-22T07:40:06.949Z,10.13
2023-03-22T07:41:08.779Z,7.53
2023-03-22T07:42:11.464Z,5.80
2023-03-22T07:43:13.254Z,5.43
2023-03-22T07:44:18.239Z,5.03
2023-03-22T07:45:21.850Z,4.95
2023-03-22T07:46:23.810Z,4.95
2023-03-22T07:47:39.895Z,6.93
2023-03-22T07:48:43.093Z,5.35
2023-03-22T07:49:44.844Z,5.75
2023-03-22T07:50:47.900Z,9.13
2023-03-22T07:51:50.645Z,6.40
2023-03-22T07:52:52.417Z,10.57
2023-03-22T07:53:56.477Z,5.85
2023-03-22T07:54:58.182Z,5.82
2023-03-22T07:56:00.912Z,4.63
2023-03-22T07:57:02.671Z,7.10
2023-03-22T07:58:06.188Z,4.30
2023-03-22T07:59:09.093Z,7.90
2023-03-22T08:00:17.322Z,5.53
2023-03-22T08:01:20.079Z,3.53
2023-03-22T08:02:21.805Z,5.97
2023-03-22T08:03:25.372Z,5.13
2023-03-22T08:04:27.818Z,5.68
2023-03-22T08:05:30.859Z,6.85
2023-03-22T08:06:33.794Z,5.88
2023-03-22T08:07:35.586Z,8.20
2023-03-22T08:08:38.455Z,2.75
2023-03-22T08:09:41.504Z,6.38
2023-03-22T08:10:44.257Z,6.60
2023-03-22T08:11:46.926Z,7.88
2023-03-22T08:12:48.583Z,4.72
2023-03-22T08:13:51.462Z,10.50
2023-03-22T08:14:53.253Z,4.68
2023-03-22T08:15:55.985Z,3.78
2023-03-22T08:16:57.699Z,4.05
2023-03-22T08:18:00.582Z,3.38
2023-03-22T08:19:02.824Z,5.57
2023-03-22T08:20:08.712Z,7.22
2023-03-22T08:21:11.822Z,4.28
2023-03-22T08:22:13.584Z,5.10
2023-03-22T08:23:16.831Z,5.80
2023-03-22T08:24:19.646Z,8.85
2023-03-22T08:25:23.548Z,3.75
2023-03-22T08:26:27.032Z,6.90
2023-03-22T08:27:28.759Z,3.28
2023-03-22T08:28:31.536Z,5.40
2023-03-22T08:29:33.950Z,5.72
2023-03-22T08:30:37.283Z,3.00
2023-03-22T08:31:40.061Z,4.78
2023-03-22T08:32:42.716Z,12.05
2023-03-22T08:33:45.775Z,4.35
2023-03-22T08:34:47.598Z,4.22
2023-03-22T08:35:50.611Z,4.90
2023-03-22T08:36:52.336Z,6.65
2023-03-22T08:37:55.702Z,6.78
2023-03-22T08:38:58.503Z,6.43
2023-03-22T08:40:00.280Z,5.78
2023-03-22T08:41:04.504Z,4.50
2023-03-22T08:42:06.325Z,5.25
2023-03-22T08:43:09.027Z,4.15
2023-03-22T08:44:10.755Z,4.03
2023-03-22T08:45:13.427Z,7.25
2023-03-22T08:46:15.382Z,5.03
2023-03-22T08:47:18.105Z,2.88
2023-03-22T08:48:20.920Z,6.55
2023-03-22T08:49:23.057Z,3.83
2023-03-22T08:50:25.770Z,5.90
2023-03-22T08:51:27.544Z,2.92
2023-03-22T08:52:31.330Z,6.65
2023-03-22T08:53:33.028Z,6.93
2023-03-22T08:54:36.017Z,6.35
2023-03-22T08:55:39.983Z,6.05
2023-03-22T08:56:43.292Z,5.25
2023-03-22T08:57:50.142Z,5.40
2023-03-22T08:58:51.837Z,6.57
2023-03-22T08:59:54.536Z,3.47
2023-03-22T09:00:56.253Z,4.00
2023-03-22T09:01:59.299Z,5.85
2023-03-22T09:03:02.065Z,3.78
2023-03-22T09:04:04.802Z,5.15
2023-03-22T09:05:08.116Z,8.05
2023-03-22T09:06:11.116Z,5.57
2023-03-22T09:07:12.826Z,4.60
2023-03-22T09:08:19.854Z,4.28
2023-03-22T09:09:22.754Z,3.97
2023-03-22T09:10:24.489Z,3.25
2023-03-22T09:11:27.427Z,4.00
2023-03-22T09:12:30.691Z,5.55
2023-03-22T09:13:34.595Z,6.78
2023-03-22T09:14:36.538Z,3.45
2023-03-22T09:15:39.553Z,6.32
2023-03-22T09:16:42.569Z,6.13
2023-03-22T09:17:44.295Z,2.83
2023-03-22T09:18:46.972Z,7.60
2023-03-22T09:19:48.697Z,6.50
2023-03-22T09:20:51.935Z,4.90
2023-03-22T09:21:54.635Z,4.22
2023-03-22T09:22:57.318Z,4.43
2023-03-22T09:23:59.998Z,3.60
2023-03-22T09:25:02.734Z,2.03
2023-03-22T09:26:08.043Z,8.40
2023-03-22T09:27:09.857Z,3.67
2023-03-22T09:28:14.419Z,3.95
2023-03-22T09:29:16.164Z,7.53
2023-03-22T09:30:18.919Z,1.55
2023-03-22T09:31:21.947Z,5.97
2023-03-22T09:32:23.641Z,4.07
2023-03-22T09:33:26.367Z,3.38
2023-03-22T09:34:29.154Z,2.15
2023-03-22T09:35:32.039Z,4.60
2023-03-22T09:36:34.783Z,3.53
2023-03-22T09:37:36.476Z,2.85
2023-03-22T09:38:39.308Z,2.97
2023-03-22T09:39:41.554Z,2.75
2023-03-22T09:40:50.162Z,4.22
2023-03-22T09:41:54.058Z,5.85
2023-03-22T09:42:58.938Z,1.98
2023-03-22T09:44:05.148Z,1.95
2023-03-22T09:45:12.724Z,2.83
2023-03-22T09:46:17.420Z,2.15
2023-03-22T09:47:24.459Z,2.20
2023-03-22T09:48:32.366Z,2.03
2023-03-22T09:49:47.201Z,1.55
2023-03-22T09:50:55.862Z,3.20
2023-03-22T09:51:58.690Z,2.13
2023-03-22T09:53:01.724Z,3.83
2023-03-22T09:54:03.627Z,1.70
2023-03-22T09:55:11.270Z,5.95
2023-03-22T09:56:17.616Z,2.80
2023-03-22T09:57:26.161Z,2.13
2023-03-22T09:58:30.742Z,3.05
2023-03-22T09:59:41.835Z,1.13
2023-03-22T10:00:46.175Z,1.40
2023-03-22T10:01:54.637Z,1.38
2023-03-22T10:03:01.914Z,0.95
2023-03-22T10:04:18.575Z,1.83
2023-03-22T10:05:27.676Z,4.00
2023-03-22T10:06:31.702Z,1.85
2023-03-22T10:07:39.106Z,0.73
2023-03-22T10:08:51.852Z,1.65
2023-03-22T10:10:02.049Z,2.65
2023-03-22T10:11:09.049Z,2.08
2023-03-22T10:12:18.181Z,2.63
2023-03-22T10:13:26.390Z,0.65
2023-03-22T10:14:31.161Z,1.13
2023-03-22T10:15:38.516Z,1.40
2023-03-22T10:16:40.587Z,0.70
2023-03-22T10:17:45.458Z,0.80
2023-03-22T10:18:50.925Z,1.35
2023-03-22T10:19:55.285Z,2.20
2023-03-22T10:21:02.217Z,1.52
2023-03-22T10:22:05.212Z,4.45
2023-03-22T10:23:12.276Z,2.50
2023-03-22T10:24:17.514Z,1.08
2023-03-22T10:25:23.488Z,3.95
2023-03-22T10:26:30.383Z,1.30
2023-03-22T10:27:32.220Z,0.77
2023-03-22T10:28:38.873Z,3.47
2023-03-22T10:29:43.747Z,3.50
2023-03-22T10:30:51.072Z,1.48
2023-03-22T10:31:54.902Z,0.70
2023-03-22T10:33:01.664Z,2.08
2023-03-22T10:34:06.524Z,1.23
2023-03-22T10:35:15.055Z,0.60
2023-03-22T10:36:19.315Z,2.45
2023-03-22T10:37:24.749Z,2.10
2023-03-22T10:38:28.874Z,0.80
2023-03-22T10:39:32.835Z,0.80
2023-03-22T10:40:36.916Z,2.00
2023-03-22T10:41:40.408Z,0.60
2023-03-22T10:42:43.164Z,1.77
2023-03-22T10:43:46.983Z,2.17
2023-03-22T10:44:50.611Z,3.38
2023-03-22T10:45:55.711Z,1.65
2023-03-22T10:47:02.441Z,2.33
2023-03-22T10:48:07.426Z,2.22
2023-03-22T10:49:13.115Z,1.10
2023-03-22T10:50:18.926Z,1.45
2023-03-22T10:51:26.579Z,1.17
2023-03-22T10:52:36.956Z,0.93
2023-03-22T10:53:41.071Z,1.63
2023-03-22T10:54:42.862Z,1.73
2023-03-22T10:55:45.732Z,1.20
2023-03-22T10:56:48.757Z,0.65
2023-03-22T10:58:12.233Z,1.02
2023-03-22T10:59:48.522Z,1.25
2023-03-22T11:00:53.224Z,0.65
2023-03-22T11:01:56.745Z,2.00
2023-03-22T11:03:00.662Z,1.00
2023-03-22T11:04:08.485Z,2.40
2023-03-22T11:05:20.788Z,0.73
2023-03-22T11:06:25.760Z,0.85
2023-03-22T11:07:33.266Z,1.05
2023-03-22T11:10:07.667Z,2.15
2023-03-22T11:11:16.687Z,0.95
2023-03-22T11:12:19.418Z,0.82
2023-03-22T11:13:23.017Z,0.93
2023-03-22T11:14:29.398Z,1.40
2023-03-22T11:15:33.445Z,0.77
2023-03-22T11:16:43.440Z,2.88
2023-03-22T11:17:46.498Z,1.00
2023-03-22T11:18:49.353Z,0.75
2023-03-22T11:19:55.957Z,1.13
2023-03-22T11:21:01.399Z,2.90
2023-03-22T11:22:07.493Z,1.02
2023-03-22T11:23:12.433Z,1.65
2023-03-22T11:24:15.688Z,0.57
2023-03-22T11:25:21.206Z,2.35
2023-03-22T11:26:30.165Z,1.35
2023-03-22T11:27:37.432Z,1.13
2023-03-22T11:28:43.607Z,2.03
2023-03-22T11:29:49.842Z,1.75
2023-03-22T11:31:00.532Z,2.10
2023-03-22T11:32:03.293Z,3.47
2023-03-22T11:33:17.264Z,1.35
2023-03-22T11:34:22.578Z,2.75
2023-03-22T11:35:27.056Z,2.45
2023-03-22T11:36:29.348Z,3.50
2023-03-22T11:37:32.219Z,1.73
2023-03-22T11:38:38.159Z,0.60
2023-03-22T11:39:48.174Z,0.88
2023-03-22T11:40:54.455Z,0.43
2023-03-22T11:42:03.692Z,2.70
2023-03-22T11:43:13.587Z,0.32
2023-03-22T11:44:19.008Z,0.93
2023-03-22T11:45:25.999Z,2.53
2023-03-22T11:46:30.063Z,2.03
2023-03-22T11:47:36.434Z,3.00
2023-03-22T11:48:42.019Z,1.27
2023-03-22T11:49:47.407Z,1.63
2023-03-22T11:50:49.563Z,1.00
2023-03-22T11:51:53.049Z,1.48
2023-03-22T11:52:56.760Z,0.90
2023-03-22T11:54:05.498Z,0.98
2023-03-22T11:55:08.072Z,1.95
2023-03-22T11:56:12.796Z,0.52
2023-03-22T11:57:17.159Z,0.90
2023-03-22T11:58:28.042Z,0.65
2023-03-22T11:59:31.901Z,0.95
2023-03-22T12:00:37.551Z,1.00
2023-03-22T12:01:41.943Z,0.70
2023-03-22T12:02:47.740Z,0.75
2023-03-22T12:03:53.641Z,3.55
2023-03-22T12:05:01.902Z,1.23
2023-03-22T12:06:05.271Z,1.00
2023-03-22T12:07:15.424Z,1.75
2023-03-22T12:08:22.091Z,3.47
2023-03-22T12:09:29.634Z,1.15
2023-03-22T12:10:33.819Z,0.98
2023-03-22T12:11:38.095Z,3.90
2023-03-22T12:12:44.994Z,0.93
2023-03-22T12:13:50.208Z,0.95
2023-03-22T12:14:55.848Z,0.57
2023-03-22T12:15:59.462Z,3.65
2023-03-22T12:17:06.926Z,2.75
2023-03-22T12:18:13.522Z,1.55
2023-03-22T12:19:23.575Z,1.30
2023-03-22T12:20:35.274Z,0.77
2023-03-22T12:21:37.061Z,0.65
2023-03-22T12:22:43.480Z,1.30
2023-03-22T12:23:46.372Z,2.03
2023-03-22T12:24:48.056Z,0.52
2023-03-22T12:25:52.895Z,2.28
2023-03-22T12:26:57.321Z,1.15
2023-03-22T12:28:03.573Z,1.25
2023-03-22T12:29:08.208Z,0.75
2023-03-22T12:30:14.742Z,1.00
2023-03-22T12:31:21.642Z,1.33
2023-03-22T12:32:26.251Z,1.70
2023-03-22T12:33:30.963Z,0.75
2023-03-22T12:34:37.297Z,2.50
2023-03-22T12:35:44.438Z,0.63
2023-03-22T12:36:48.464Z,0.65
2023-03-22T12:37:53.554Z,2.63
2023-03-22T12:38:57.955Z,1.08
2023-03-22T12:40:05.778Z,0.70
2023-03-22T12:41:11.660Z,1.38
2023-03-22T12:42:18.150Z,2.13
2023-03-22T12:43:33.357Z,1.75
2023-03-22T12:44:39.173Z,0.98
2023-03-22T12:45:45.967Z,0.70
2023-03-22T12:46:50.295Z,1.17
2023-03-22T12:47:57.002Z,3.05
2023-03-22T12:49:04.297Z,1.05
2023-03-22T12:50:13.354Z,2.35
2023-03-22T12:51:16.562Z,2.40
2023-03-22T12:52:21.600Z,1.75
2023-03-22T12:53:28.351Z,1.42
2023-03-22T12:54:30.220Z,1.30
2023-03-22T12:55:34.880Z,2.60
2023-03-22T12:56:38.929Z,2.15
2023-03-22T12:57:41.726Z,1.05
2023-03-22T12:58:46.973Z,0.90
2023-03-22T12:59:50.793Z,1.13
2023-03-22T13:00:55.370Z,0.73
2023-03-22T13:01:59.438Z,0.45
2023-03-22T13:03:10.412Z,1.50
2023-03-22T13:04:29.486Z,1.17
2023-03-22T13:05:36.150Z,0.85
2023-03-22T13:06:56.994Z,1.60
2023-03-22T13:08:03.559Z,1.00
2023-03-22T13:09:16.231Z,0.50
2023-03-22T13:10:59.576Z,1.63
2023-03-22T13:12:32.875Z,4.10
2023-03-22T13:13:42.288Z,2.42
2023-03-22T13:15:00.243Z,0.75
2023-03-22T13:16:14.033Z,1.52
2023-03-22T13:17:35.632Z,0.80
2023-03-22T13:18:58.485Z,2.97
2023-03-22T13:20:01.290Z,1.48
2023-03-22T13:21:16.404Z,1.77
2023-03-22T13:22:21.118Z,0.70
2023-03-22T13:23:27.999Z,0.77
2023-03-22T13:24:32.547Z,1.05
2023-03-22T13:25:38.237Z,4.10
2023-03-22T13:26:45.679Z,0.60
2023-03-22T13:27:52.355Z,1.80
2023-03-22T13:28:59.385Z,1.25
2023-03-22T13:30:04.898Z,1.98
2023-03-22T13:31:07.756Z,1.10
2023-03-22T13:32:29.952Z,1.20
2023-03-22T13:33:34.763Z,2.13
2023-03-22T13:34:39.102Z,1.05
2023-03-22T13:35:45.443Z,1.33
2023-03-22T13:36:56.678Z,1.48
2023-03-22T13:38:02.085Z,1.10
2023-03-22T13:39:12.326Z,1.05
2023-03-22T13:40:15.032Z,2.47
2023-03-22T13:41:22.605Z,1.05
2023-03-22T13:42:31.693Z,0.82
2023-03-22T13:43:35.685Z,1.67
2023-03-22T13:44:40.246Z,1.92
2023-03-22T13:45:57.760Z,2.83
2023-03-22T13:47:01.779Z,0.90
2023-03-22T13:48:04.956Z,1.00
2023-03-22T13:49:21.504Z,4.57
2023-03-22T13:50:28.507Z,2.97
2023-03-22T13:51:32.008Z,0.60
2023-03-22T13:52:44.612Z,1.90
2023-03-22T13:53:55.884Z,0.65
2023-03-22T13:54:59.391Z,1.17
2023-03-22T13:56:04.677Z,1.05
2023-03-22T13:57:17.529Z,1.67
2023-03-22T13:58:37.320Z,2.15
2023-03-22T14:00:11.292Z,0.57
2023-03-22T14:01:16.301Z,2.75
2023-03-22T14:02:24.322Z,1.42
2023-03-22T14:03:29.008Z,1.30
2023-03-22T14:04:37.264Z,1.15
2023-03-22T14:05:39.488Z,1.00
2023-03-22T14:06:47.154Z,1.02
2023-03-22T14:07:53.969Z,1.90
2023-03-22T14:08:59.551Z,3.95
2023-03-22T14:10:05.504Z,0.60
2023-03-22T14:11:20.236Z,1.27
2023-03-22T14:12:26.360Z,1.63
2023-03-22T14:13:31.216Z,2.95
2023-03-22T14:14:37.719Z,5.65
2023-03-22T14:15:42.438Z,2.15
2023-03-22T14:16:48.260Z,2.72
2023-03-22T14:17:52.891Z,1.15
2023-03-22T14:18:56.405Z,1.33
2023-03-22T14:19:59.418Z,6.18
2023-03-22T14:21:04.172Z,1.52
